sensor_id;sensor_type;location;lat;lon;timestamp;P1;durP1;ratioP1;P2;durP2;ratioP2
73699;SDS011;62005;50.082;8.988;2023-06-22T00:00:50;5.63;;;3.22;;
73699;SDS011;62005;50.082;8.988;2023-06-22T00:03:16;6.28;;;3.38;;
73699;SDS011;62005;50.082;8.988;2023-06-22T00:05:46;6.25;;;3.50;;
73699;SDS011;62005;50.082;8.988;2023-06-22T00:08:12;5.15;;;2.88;;
73699;SDS011;62005;50.082;8.988;2023-06-22T00:10:37;8.55;;;3.95;;
73699;SDS011;62005;50.082;8.988;2023-06-22T00:13:03;7.85;;;3.50;;
73699;SDS011;62005;50.082;8.988;2023-06-22T00:15:29;6.05;;;2.95;;
73699;SDS011;62005;50.082;8.988;2023-06-22T00:17:54;5.03;;;3.15;;
73699;SDS011;62005;50.082;8.988;2023-06-22T00:20:19;6.90;;;3.70;;
73699;SDS011;62005;50.082;8.988;2023-06-22T00:22:45;5.47;;;3.17;;
73699;SDS011;62005;50.082;8.988;2023-06-22T00:25:11;5.97;;;3.03;;
73699;SDS011;62005;50.082;8.988;2023-06-22T00:27:36;4.93;;;3.10;;
73699;SDS011;62005;50.082;8.988;2023-06-22T00:30:02;7.63;;;2.78;;
73699;SDS011;62005;50.082;8.988;2023-06-22T00:32:28;4.80;;;3.05;;
73699;SDS011;62005;50.082;8.988;2023-06-22T00:34:53;6.27;;;3.00;;
73699;SDS011;62005;50.082;8.988;2023-06-22T00:37:19;5.22;;;2.83;;
73699;SDS011;62005;50.082;8.988;2023-06-22T00:39:44;5.57;;;3.20;;
73699;SDS011;62005;50.082;8.988;2023-06-22T00:42:09;7.57;;;3.63;;
73699;SDS011;62005;50.082;8.988;2023-06-22T00:44:36;5.78;;;2.92;;
73699;SDS011;62005;50.082;8.988;2023-06-22T00:47:01;5.97;;;3.05;;
73699;SDS011;62005;50.082;8.988;2023-06-22T00:49:28;6.32;;;3.20;;
73699;SDS011;62005;50.082;8.988;2023-06-22T00:51:54;6.65;;;3.50;;
73699;SDS011;62005;50.082;8.988;2023-06-22T00:56:50;4.07;;;2.72;;
73699;SDS011;62005;50.082;8.988;2023-06-22T00:59:19;6.07;;;2.60;;
73699;SDS011;62005;50.082;8.988;2023-06-22T01:01:45;6.25;;;3.50;;
73699;SDS011;62005;50.082;8.988;2023-06-22T01:04:11;6.47;;;3.70;;
73699;SDS011;62005;50.082;8.988;2023-06-22T01:06:38;6.65;;;2.80;;
73699;SDS011;62005;50.082;8.988;2023-06-22T01:09:15;5.93;;;2.95;;
73699;SDS011;62005;50.082;8.988;2023-06-22T01:11:49;5.00;;;2.92;;
73699;SDS011;62005;50.082;8.988;2023-06-22T01:16:52;7.65;;;3.10;;
73699;SDS011;62005;50.082;8.988;2023-06-22T01:21:51;5.03;;;3.05;;
73699;SDS011;62005;50.082;8.988;2023-06-22T01:24:26;5.22;;;3.08;;
73699;SDS011;62005;50.082;8.988;2023-06-22T01:31:54;5.55;;;3.05;;
73699;SDS011;62005;50.082;8.988;2023-06-22T01:34:21;5.57;;;3.40;;
73699;SDS011;62005;50.082;8.988;2023-06-22T01:36:54;7.07;;;3.50;;
73699;SDS011;62005;50.082;8.988;2023-06-22T01:39:21;7.20;;;3.17;;
73699;SDS011;62005;50.082;8.988;2023-06-22T01:41:51;7.15;;;3.53;;
73699;SDS011;62005;50.082;8.988;2023-06-22T01:44:18;6.10;;;3.13;;
73699;SDS011;62005;50.082;8.988;2023-06-22T01:46:44;8.52;;;3.65;;
73699;SDS011;62005;50.082;8.988;2023-06-22T01:49:10;7.15;;;4.32;;
73699;SDS011;62005;50.082;8.988;2023-06-22T01:51:36;5.40;;;3.63;;
73699;SDS011;62005;50.082;8.988;2023-06-22T01:54:02;6.00;;;3.60;;
73699;SDS011;62005;50.082;8.988;2023-06-22T01:59:04;7.82;;;4.28;;
73699;SDS011;62005;50.082;8.988;2023-06-22T02:02:32;6.65;;;4.03;;
73699;SDS011;62005;50.082;8.988;2023-06-22T02:06:03;8.10;;;3.95;;
73699;SDS011;62005;50.082;8.988;2023-06-22T02:09:30;8.10;;;4.30;;
73699;SDS011;62005;50.082;8.988;2023-06-22T02:12:57;6.97;;;3.72;;
73699;SDS011;62005;50.082;8.988;2023-06-22T02:16:22;5.93;;;3.63;;
73699;SDS011;62005;50.082;8.988;2023-06-22T02:19:38;9.48;;;4.00;;
73699;SDS011;62005;50.082;8.988;2023-06-22T02:23:02;6.18;;;3.97;;
73699;SDS011;62005;50.082;8.988;2023-06-22T02:26:26;5.65;;;3.72;;
73699;SDS011;62005;50.082;8.988;2023-06-22T02:29:50;6.50;;;3.55;;
73699;SDS011;62005;50.082;8.988;2023-06-22T02:33:14;6.43;;;3.70;;
73699;SDS011;62005;50.082;8.988;2023-06-22T02:36:43;6.93;;;3.90;;
73699;SDS011;62005;50.082;8.988;2023-06-22T02:40:10;10.57;;;4.55;;
73699;SDS011;62005;50.082;8.988;2023-06-22T02:43:38;7.80;;;3.72;;
73699;SDS011;62005;50.082;8.988;2023-06-22T02:47:02;6.07;;;3.58;;
73699;SDS011;62005;50.082;8.988;2023-06-22T02:50:26;7.63;;;3.67;;
73699;SDS011;62005;50.082;8.988;2023-06-22T02:53:50;8.15;;;3.97;;
73699;SDS011;62005;50.082;8.988;2023-06-22T02:57:13;7.50;;;4.32;;
73699;SDS011;62005;50.082;8.988;2023-06-22T03:00:37;6.18;;;3.67;;
73699;SDS011;62005;50.082;8.988;2023-06-22T03:07:31;5.97;;;3.63;;
73699;SDS011;62005;50.082;8.988;2023-06-22T03:10:55;9.23;;;3.88;;
73699;SDS011;62005;50.082;8.988;2023-06-22T03:14:20;7.45;;;3.47;;
73699;SDS011;62005;50.082;8.988;2023-06-22T03:17:44;6.20;;;3.63;;
73699;SDS011;62005;50.082;8.988;2023-06-22T03:21:08;7.70;;;4.28;;
73699;SDS011;62005;50.082;8.988;2023-06-22T03:27:56;5.10;;;3.35;;
73699;SDS011;62005;50.082;8.988;2023-06-22T03:31:20;7.00;;;4.10;;
73699;SDS011;62005;50.082;8.988;2023-06-22T03:34:44;5.35;;;3.72;;
73699;SDS011;62005;50.082;8.988;2023-06-22T03:38:08;8.05;;;4.03;;
73699;SDS011;62005;50.082;8.988;2023-06-22T03:44:56;7.93;;;4.00;;
73699;SDS011;62005;50.082;8.988;2023-06-22T03:48:19;7.80;;;4.57;;
73699;SDS011;62005;50.082;8.988;2023-06-22T03:55:07;7.30;;;4.00;;
73699;SDS011;62005;50.082;8.988;2023-06-22T03:58:31;7.22;;;4.00;;
73699;SDS011;62005;50.082;8.988;2023-06-22T04:01:55;6.68;;;3.97;;
73699;SDS011;62005;50.082;8.988;2023-06-22T04:05:19;6.50;;;4.15;;
73699;SDS011;62005;50.082;8.988;2023-06-22T04:08:44;6.57;;;4.30;;
73699;SDS011;62005;50.082;8.988;2023-06-22T04:12:08;7.18;;;4.65;;
73699;SDS011;62005;50.082;8.988;2023-06-22T04:15:32;8.45;;;4.53;;
73699;SDS011;62005;50.082;8.988;2023-06-22T04:18:56;9.43;;;4.55;;
73699;SDS011;62005;50.082;8.988;2023-06-22T04:22:20;6.60;;;3.75;;
73699;SDS011;62005;50.082;8.988;2023-06-22T04:29:10;7.22;;;3.63;;
73699;SDS011;62005;50.082;8.988;2023-06-22T04:32:35;7.30;;;4.43;;
73699;SDS011;62005;50.082;8.988;2023-06-22T04:39:23;8.80;;;4.88;;
73699;SDS011;62005;50.082;8.988;2023-06-22T04:42:48;8.80;;;4.43;;
73699;SDS011;62005;50.082;8.988;2023-06-22T04:46:19;7.85;;;4.45;;
73699;SDS011;62005;50.082;8.988;2023-06-22T04:49:43;8.32;;;4.32;;
73699;SDS011;62005;50.082;8.988;2023-06-22T04:53:07;8.00;;;4.50;;
73699;SDS011;62005;50.082;8.988;2023-06-22T04:56:32;9.10;;;4.07;;
73699;SDS011;62005;50.082;8.988;2023-06-22T04:59:58;6.90;;;4.15;;
73699;SDS011;62005;50.082;8.988;2023-06-22T05:03:22;7.00;;;4.57;;
73699;SDS011;62005;50.082;8.988;2023-06-22T05:06:12;8.73;;;5.30;;
73699;SDS011;62005;50.082;8.988;2023-06-22T05:09:35;8.15;;;4.35;;
73699;SDS011;62005;50.082;8.988;2023-06-22T05:12:59;7.50;;;4.53;;
73699;SDS011;62005;50.082;8.988;2023-06-22T05:15:51;9.18;;;4.65;;
73699;SDS011;62005;50.082;8.988;2023-06-22T05:18:16;8.27;;;4.28;;
73699;SDS011;62005;50.082;8.988;2023-06-22T05:21:40;6.32;;;4.32;;
73699;SDS011;62005;50.082;8.988;2023-06-22T05:25:08;8.90;;;4.30;;
73699;SDS011;62005;50.082;8.988;2023-06-22T05:27:35;7.28;;;4.05;;
73699;SDS011;62005;50.082;8.988;2023-06-22T05:30:59;7.38;;;4.35;;
73699;SDS011;62005;50.082;8.988;2023-06-22T05:34:12;7.25;;;4.35;;
73699;SDS011;62005;50.082;8.988;2023-06-22T05:36:38;6.80;;;4.00;;
73699;SDS011;62005;50.082;8.988;2023-06-22T05:39:13;10.07;;;4.50;;
73699;SDS011;62005;50.082;8.988;2023-06-22T05:41:39;8.00;;;4.00;;
73699;SDS011;62005;50.082;8.988;2023-06-22T05:44:05;7.75;;;4.55;;
73699;SDS011;62005;50.082;8.988;2023-06-22T05:46:30;7.43;;;3.75;;
73699;SDS011;62005;50.082;8.988;2023-06-22T05:49:53;6.63;;;3.42;;
73699;SDS011;62005;50.082;8.988;2023-06-22T05:52:18;8.65;;;3.85;;
73699;SDS011;62005;50.082;8.988;2023-06-22T05:54:44;6.07;;;4.20;;
73699;SDS011;62005;50.082;8.988;2023-06-22T05:57:18;10.30;;;4.40;;
73699;SDS011;62005;50.082;8.988;2023-06-22T05:59:49;6.10;;;3.42;;
73699;SDS011;62005;50.082;8.988;2023-06-22T06:02:14;5.33;;;3.60;;
73699;SDS011;62005;50.082;8.988;2023-06-22T06:04:40;6.90;;;3.65;;
73699;SDS011;62005;50.082;8.988;2023-06-22T06:07:05;5.70;;;3.28;;
73699;SDS011;62005;50.082;8.988;2023-06-22T06:09:30;7.00;;;3.30;;
73699;SDS011;62005;50.082;8.988;2023-06-22T06:11:56;7.85;;;3.55;;
73699;SDS011;62005;50.082;8.988;2023-06-22T06:14:21;5.25;;;2.80;;
73699;SDS011;62005;50.082;8.988;2023-06-22T06:16:48;5.97;;;3.40;;
73699;SDS011;62005;50.082;8.988;2023-06-22T06:19:14;6.50;;;3.47;;
73699;SDS011;62005;50.082;8.988;2023-06-22T06:21:39;5.33;;;2.90;;
73699;SDS011;62005;50.082;8.988;2023-06-22T06:24:04;5.60;;;3.47;;
73699;SDS011;62005;50.082;8.988;2023-06-22T06:27:29;6.13;;;3.08;;
73699;SDS011;62005;50.082;8.988;2023-06-22T06:30:36;5.00;;;3.10;;
73699;SDS011;62005;50.082;8.988;2023-06-22T06:34:01;4.65;;;2.92;;
73699;SDS011;62005;50.082;8.988;2023-06-22T06:37:24;4.88;;;3.20;;
73699;SDS011;62005;50.082;8.988;2023-06-22T06:40:48;4.82;;;3.05;;
73699;SDS011;62005;50.082;8.988;2023-06-22T06:44:12;4.60;;;2.92;;
73699;SDS011;62005;50.082;8.988;2023-06-22T06:47:37;5.18;;;3.15;;
73699;SDS011;62005;50.082;8.988;2023-06-22T06:51:01;6.25;;;3.33;;
73699;SDS011;62005;50.082;8.988;2023-06-22T06:54:25;6.18;;;3.08;;
73699;SDS011;62005;50.082;8.988;2023-06-22T06:56:52;5.78;;;3.50;;
73699;SDS011;62005;50.082;8.988;2023-06-22T06:59:18;4.80;;;2.80;;
73699;SDS011;62005;50.082;8.988;2023-06-22T07:01:43;7.70;;;3.03;;
73699;SDS011;62005;50.082;8.988;2023-06-22T07:04:09;6.38;;;3.15;;
73699;SDS011;62005;50.082;8.988;2023-06-22T07:06:35;5.30;;;3.10;;
73699;SDS011;62005;50.082;8.988;2023-06-22T07:09:00;5.83;;;3.37;;
73699;SDS011;62005;50.082;8.988;2023-06-22T07:11:26;6.63;;;3.17;;
73699;SDS011;62005;50.082;8.988;2023-06-22T07:13:52;5.93;;;2.90;;
73699;SDS011;62005;50.082;8.988;2023-06-22T07:16:17;5.82;;;3.10;;
73699;SDS011;62005;50.082;8.988;2023-06-22T07:18:43;5.78;;;3.45;;
73699;SDS011;62005;50.082;8.988;2023-06-22T07:21:08;4.53;;;3.07;;
73699;SDS011;62005;50.082;8.988;2023-06-22T07:23:34;5.03;;;3.20;;
73699;SDS011;62005;50.082;8.988;2023-06-22T07:25:59;5.20;;;3.50;;
73699;SDS011;62005;50.082;8.988;2023-06-22T07:28:28;5.78;;;3.38;;
73699;SDS011;62005;50.082;8.988;2023-06-22T07:30:56;6.75;;;3.65;;
73699;SDS011;62005;50.082;8.988;2023-06-22T07:33:21;5.18;;;3.42;;
73699;SDS011;62005;50.082;8.988;2023-06-22T07:35:47;5.70;;;3.47;;
73699;SDS011;62005;50.082;8.988;2023-06-22T07:40:39;7.38;;;3.78;;
73699;SDS011;62005;50.082;8.988;2023-06-22T07:43:06;6.68;;;3.58;;
73699;SDS011;62005;50.082;8.988;2023-06-22T07:45:32;5.88;;;3.58;;
73699;SDS011;62005;50.082;8.988;2023-06-22T07:47:59;4.68;;;2.83;;
73699;SDS011;62005;50.082;8.988;2023-06-22T07:50:25;6.05;;;3.10;;
73699;SDS011;62005;50.082;8.988;2023-06-22T07:52:50;6.50;;;3.58;;
73699;SDS011;62005;50.082;8.988;2023-06-22T07:55:17;7.03;;;2.97;;
73699;SDS011;62005;50.082;8.988;2023-06-22T07:57:43;5.10;;;3.47;;
73699;SDS011;62005;50.082;8.988;2023-06-22T08:00:08;8.93;;;3.53;;
73699;SDS011;62005;50.082;8.988;2023-06-22T08:02:42;8.13;;;3.90;;
73699;SDS011;62005;50.082;8.988;2023-06-22T08:05:09;7.55;;;3.28;;
73699;SDS011;62005;50.082;8.988;2023-06-22T08:07:36;13.02;;;6.32;;
73699;SDS011;62005;50.082;8.988;2023-06-22T08:12:28;4.50;;;3.20;;
73699;SDS011;62005;50.082;8.988;2023-06-22T08:14:53;6.45;;;3.10;;
73699;SDS011;62005;50.082;8.988;2023-06-22T08:17:18;6.57;;;2.90;;
73699;SDS011;62005;50.082;8.988;2023-06-22T08:19:44;4.80;;;2.90;;
73699;SDS011;62005;50.082;8.988;2023-06-22T08:22:09;5.03;;;2.90;;
73699;SDS011;62005;50.082;8.988;2023-06-22T08:24:34;6.03;;;3.07;;
73699;SDS011;62005;50.082;8.988;2023-06-22T08:27:00;9.23;;;3.45;;
73699;SDS011;62005;50.082;8.988;2023-06-22T08:29:25;4.47;;;2.83;;
73699;SDS011;62005;50.082;8.988;2023-06-22T08:31:50;5.80;;;2.73;;
73699;SDS011;62005;50.082;8.988;2023-06-22T08:34:16;4.20;;;2.93;;
73699;SDS011;62005;50.082;8.988;2023-06-22T08:36:43;5.65;;;2.85;;
73699;SDS011;62005;50.082;8.988;2023-06-22T08:39:17;6.68;;;3.35;;
73699;SDS011;62005;50.082;8.988;2023-06-22T08:44:08;5.33;;;2.30;;
73699;SDS011;62005;50.082;8.988;2023-06-22T08:46:33;4.50;;;3.03;;
73699;SDS011;62005;50.082;8.988;2023-06-22T08:48:59;4.70;;;2.80;;
73699;SDS011;62005;50.082;8.988;2023-06-22T08:51:24;5.43;;;2.60;;
73699;SDS011;62005;50.082;8.988;2023-06-22T08:53:50;4.33;;;2.60;;
73699;SDS011;62005;50.082;8.988;2023-06-22T08:56:15;3.80;;;2.45;;
73699;SDS011;62005;50.082;8.988;2023-06-22T08:58:40;6.53;;;2.87;;
73699;SDS011;62005;50.082;8.988;2023-06-22T09:01:06;5.70;;;2.70;;
73699;SDS011;62005;50.082;8.988;2023-06-22T09:03:31;4.40;;;2.80;;
73699;SDS011;62005;50.082;8.988;2023-06-22T09:05:57;5.03;;;2.95;;
73699;SDS011;62005;50.082;8.988;2023-06-22T09:08:23;6.28;;;2.90;;
73699;SDS011;62005;50.082;8.988;2023-06-22T09:10:49;5.93;;;2.47;;
73699;SDS011;62005;50.082;8.988;2023-06-22T09:13:14;7.15;;;3.30;;
73699;SDS011;62005;50.082;8.988;2023-06-22T09:15:39;4.45;;;3.10;;
73699;SDS011;62005;50.082;8.988;2023-06-22T09:18:05;4.43;;;2.63;;
73699;SDS011;62005;50.082;8.988;2023-06-22T09:20:30;5.72;;;2.85;;
73699;SDS011;62005;50.082;8.988;2023-06-22T09:22:56;5.65;;;3.17;;
73699;SDS011;62005;50.082;8.988;2023-06-22T09:25:21;5.50;;;2.95;;
73699;SDS011;62005;50.082;8.988;2023-06-22T09:27:47;5.07;;;2.90;;
73699;SDS011;62005;50.082;8.988;2023-06-22T09:30:13;6.13;;;2.50;;
73699;SDS011;62005;50.082;8.988;2023-06-22T09:32:38;4.93;;;3.30;;
73699;SDS011;62005;50.082;8.988;2023-06-22T09:35:04;4.97;;;2.73;;
73699;SDS011;62005;50.082;8.988;2023-06-22T09:37:34;5.05;;;2.90;;
73699;SDS011;62005;50.082;8.988;2023-06-22T09:41:02;4.85;;;2.45;;
73699;SDS011;62005;50.082;8.988;2023-06-22T09:43:27;4.87;;;2.70;;
73699;SDS011;62005;50.082;8.988;2023-06-22T09:45:53;5.70;;;2.70;;
73699;SDS011;62005;50.082;8.988;2023-06-22T09:48:18;4.05;;;3.00;;
73699;SDS011;62005;50.082;8.988;2023-06-22T09:50:43;6.23;;;2.97;;
73699;SDS011;62005;50.082;8.988;2023-06-22T09:53:09;6.47;;;2.80;;
73699;SDS011;62005;50.082;8.988;2023-06-22T09:55:34;4.75;;;2.72;;
73699;SDS011;62005;50.082;8.988;2023-06-22T09:57:59;7.00;;;2.83;;
73699;SDS011;62005;50.082;8.988;2023-06-22T10:00:25;4.18;;;2.70;;
73699;SDS011;62005;50.082;8.988;2023-06-22T10:02:51;5.45;;;3.08;;
73699;SDS011;62005;50.082;8.988;2023-06-22T10:05:17;5.35;;;2.83;;
73699;SDS011;62005;50.082;8.988;2023-06-22T10:07:42;6.55;;;2.83;;
73699;SDS011;62005;50.082;8.988;2023-06-22T10:10:09;4.20;;;2.90;;
73699;SDS011;62005;50.082;8.988;2023-06-22T10:15:00;4.43;;;2.77;;
73699;SDS011;62005;50.082;8.988;2023-06-22T10:17:25;8.63;;;3.22;;
73699;SDS011;62005;50.082;8.988;2023-06-22T10:19:51;7.77;;;3.20;;
73699;SDS011;62005;50.082;8.988;2023-06-22T10:22:16;6.63;;;3.00;;
73699;SDS011;62005;50.082;8.988;2023-06-22T10:24:41;7.17;;;2.70;;
73699;SDS011;62005;50.082;8.988;2023-06-22T10:27:10;6.82;;;3.17;;
73699;SDS011;62005;50.082;8.988;2023-06-22T10:29:36;5.38;;;2.90;;
73699;SDS011;62005;50.082;8.988;2023-06-22T10:32:02;4.03;;;2.80;;
73699;SDS011;62005;50.082;8.988;2023-06-22T10:34:27;5.88;;;3.42;;
73699;SDS011;62005;50.082;8.988;2023-06-22T10:36:53;4.80;;;3.23;;
73699;SDS011;62005;50.082;8.988;2023-06-22T10:39:18;9.60;;;3.43;;
73699;SDS011;62005;50.082;8.988;2023-06-22T10:41:43;4.68;;;2.90;;
73699;SDS011;62005;50.082;8.988;2023-06-22T10:44:09;5.28;;;3.05;;
73699;SDS011;62005;50.082;8.988;2023-06-22T10:46:34;5.80;;;3.55;;
73699;SDS011;62005;50.082;8.988;2023-06-22T10:49:00;6.83;;;2.93;;
73699;SDS011;62005;50.082;8.988;2023-06-22T10:51:25;6.13;;;3.10;;
73699;SDS011;62005;50.082;8.988;2023-06-22T10:53:51;5.72;;;3.25;;
73699;SDS011;62005;50.082;8.988;2023-06-22T10:56:17;6.43;;;2.50;;
73699;SDS011;62005;50.082;8.988;2023-06-22T10:58:44;4.75;;;2.80;;
73699;SDS011;62005;50.082;8.988;2023-06-22T11:01:10;5.07;;;2.97;;
73699;SDS011;62005;50.082;8.988;2023-06-22T11:03:35;7.83;;;3.03;;
73699;SDS011;62005;50.082;8.988;2023-06-22T11:06:00;5.85;;;2.92;;
73699;SDS011;62005;50.082;8.988;2023-06-22T11:08:26;5.67;;;3.33;;
73699;SDS011;62005;50.082;8.988;2023-06-22T11:10:51;4.63;;;3.00;;
73699;SDS011;62005;50.082;8.988;2023-06-22T11:13:17;6.53;;;3.30;;
73699;SDS011;62005;50.082;8.988;2023-06-22T11:15:42;7.23;;;3.10;;
73699;SDS011;62005;50.082;8.988;2023-06-22T11:18:07;6.77;;;3.10;;
73699;SDS011;62005;50.082;8.988;2023-06-22T11:20:33;5.43;;;2.93;;
73699;SDS011;62005;50.082;8.988;2023-06-22T11:23:03;6.03;;;3.28;;
73699;SDS011;62005;50.082;8.988;2023-06-22T11:25:28;5.50;;;2.90;;
73699;SDS011;62005;50.082;8.988;2023-06-22T11:27:54;5.80;;;3.17;;
73699;SDS011;62005;50.082;8.988;2023-06-22T11:30:19;6.00;;;2.85;;
73699;SDS011;62005;50.082;8.988;2023-06-22T11:32:44;7.82;;;3.22;;
73699;SDS011;62005;50.082;8.988;2023-06-22T11:35:10;6.97;;;2.77;;
73699;SDS011;62005;50.082;8.988;2023-06-22T11:37:35;8.23;;;3.30;;
73699;SDS011;62005;50.082;8.988;2023-06-22T11:40:00;6.95;;;3.22;;
73699;SDS011;62005;50.082;8.988;2023-06-22T11:42:27;5.50;;;3.00;;
73699;SDS011;62005;50.082;8.988;2023-06-22T11:44:53;9.50;;;3.25;;
73699;SDS011;62005;50.082;8.988;2023-06-22T11:47:18;5.07;;;2.97;;
73699;SDS011;62005;50.082;8.988;2023-06-22T11:49:44;6.78;;;3.15;;
73699;SDS011;62005;50.082;8.988;2023-06-22T11:52:09;6.97;;;2.80;;
73699;SDS011;62005;50.082;8.988;2023-06-22T11:54:34;7.17;;;3.40;;
73699;SDS011;62005;50.082;8.988;2023-06-22T11:57:00;5.93;;;3.05;;
73699;SDS011;62005;50.082;8.988;2023-06-22T11:59:25;6.68;;;2.75;;
73699;SDS011;62005;50.082;8.988;2023-06-22T12:01:51;6.17;;;3.20;;
73699;SDS011;62005;50.082;8.988;2023-06-22T12:04:16;9.35;;;3.38;;
73699;SDS011;62005;50.082;8.988;2023-06-22T12:06:42;5.70;;;3.00;;
73699;SDS011;62005;50.082;8.988;2023-06-22T12:09:08;6.25;;;2.85;;
73699;SDS011;62005;50.082;8.988;2023-06-22T12:11:34;8.70;;;3.40;;
73699;SDS011;62005;50.082;8.988;2023-06-22T12:14:00;7.50;;;3.03;;
73699;SDS011;62005;50.082;8.988;2023-06-22T12:16:27;7.47;;;3.85;;
73699;SDS011;62005;50.082;8.988;2023-06-22T12:18:55;5.07;;;2.90;;
73699;SDS011;62005;50.082;8.988;2023-06-22T12:21:20;7.25;;;3.00;;
73699;SDS011;62005;50.082;8.988;2023-06-22T12:23:46;7.77;;;3.33;;
73699;SDS011;62005;50.082;8.988;2023-06-22T12:26:11;7.63;;;2.83;;
73699;SDS011;62005;50.082;8.988;2023-06-22T12:28:36;9.80;;;3.40;;
73699;SDS011;62005;50.082;8.988;2023-06-22T12:31:02;8.77;;;3.63;;
73699;SDS011;62005;50.082;8.988;2023-06-22T12:33:27;9.63;;;3.50;;
73699;SDS011;62005;50.082;8.988;2023-06-22T12:35:52;7.03;;;3.10;;
73699;SDS011;62005;50.082;8.988;2023-06-22T12:38:17;7.07;;;3.30;;
73699;SDS011;62005;50.082;8.988;2023-06-22T12:40:43;6.80;;;3.20;;
73699;SDS011;62005;50.082;8.988;2023-06-22T12:43:08;6.35;;;3.42;;
73699;SDS011;62005;50.082;8.988;2023-06-22T12:45:33;5.07;;;2.97;;
73699;SDS011;62005;50.082;8.988;2023-06-22T12:47:59;6.32;;;3.13;;
73699;SDS011;62005;50.082;8.988;2023-06-22T12:50:25;8.40;;;2.90;;
73699;SDS011;62005;50.082;8.988;2023-06-22T12:52:50;8.70;;;3.38;;
73699;SDS011;62005;50.082;8.988;2023-06-22T12:55:15;7.60;;;3.20;;
73699;SDS011;62005;50.082;8.988;2023-06-22T12:57:41;6.00;;;2.83;;
73699;SDS011;62005;50.082;8.988;2023-06-22T13:00:06;6.13;;;2.87;;
73699;SDS011;62005;50.082;8.988;2023-06-22T13:02:34;6.85;;;3.45;;
73699;SDS011;62005;50.082;8.988;2023-06-22T13:05:00;7.18;;;2.90;;
73699;SDS011;62005;50.082;8.988;2023-06-22T13:07:25;8.25;;;3.28;;
73699;SDS011;62005;50.082;8.988;2023-06-22T13:09:50;6.68;;;3.00;;
73699;SDS011;62005;50.082;8.988;2023-06-22T13:12:22;7.68;;;3.20;;
73699;SDS011;62005;50.082;8.988;2023-06-22T13:14:47;4.95;;;3.08;;
73699;SDS011;62005;50.082;8.988;2023-06-22T13:17:13;6.00;;;2.95;;
73699;SDS011;62005;50.082;8.988;2023-06-22T13:19:39;6.43;;;2.95;;
73699;SDS011;62005;50.082;8.988;2023-06-22T13:22:04;7.90;;;2.75;;
73699;SDS011;62005;50.082;8.988;2023-06-22T13:24:30;6.15;;;3.30;;
73699;SDS011;62005;50.082;8.988;2023-06-22T13:26:55;6.60;;;2.73;;
73699;SDS011;62005;50.082;8.988;2023-06-22T13:29:21;8.00;;;2.77;;
73699;SDS011;62005;50.082;8.988;2023-06-22T13:31:46;6.73;;;3.03;;
73699;SDS011;62005;50.082;8.988;2023-06-22T13:34:11;5.47;;;2.97;;
73699;SDS011;62005;50.082;8.988;2023-06-22T13:36:37;7.18;;;2.70;;
73699;SDS011;62005;50.082;8.988;2023-06-22T13:39:02;7.10;;;3.10;;
73699;SDS011;62005;50.082;8.988;2023-06-22T13:41:28;6.20;;;2.50;;
73699;SDS011;62005;50.082;8.988;2023-06-22T13:43:54;6.13;;;2.35;;
73699;SDS011;62005;50.082;8.988;2023-06-22T13:46:19;7.55;;;2.42;;
73699;SDS011;62005;50.082;8.988;2023-06-22T13:48:44;6.20;;;2.95;;
73699;SDS011;62005;50.082;8.988;2023-06-22T13:51:10;12.43;;;2.80;;
73699;SDS011;62005;50.082;8.988;2023-06-22T13:53:35;4.40;;;2.25;;
73699;SDS011;62005;50.082;8.988;2023-06-22T13:56:01;5.47;;;1.90;;
73699;SDS011;62005;50.082;8.988;2023-06-22T13:58:26;5.30;;;2.13;;
73699;SDS011;62005;50.082;8.988;2023-06-22T14:00:51;6.60;;;1.83;;
73699;SDS011;62005;50.082;8.988;2023-06-22T14:03:16;5.83;;;2.27;;
73699;SDS011;62005;50.082;8.988;2023-06-22T14:05:42;6.57;;;2.20;;
73699;SDS011;62005;50.082;8.988;2023-06-22T14:08:08;6.47;;;2.22;;
73699;SDS011;62005;50.082;8.988;2023-06-22T14:10:34;9.07;;;2.50;;
73699;SDS011;62005;50.082;8.988;2023-06-22T14:12:59;8.38;;;2.25;;
73699;SDS011;62005;50.082;8.988;2023-06-22T14:15:25;7.43;;;2.15;;
73699;SDS011;62005;50.082;8.988;2023-06-22T14:17:51;5.43;;;2.10;;
73699;SDS011;62005;50.082;8.988;2023-06-22T14:20:16;6.25;;;1.90;;
73699;SDS011;62005;50.082;8.988;2023-06-22T14:22:43;9.75;;;1.95;;
73699;SDS011;62005;50.082;8.988;2023-06-22T14:25:08;6.70;;;1.80;;
73699;SDS011;62005;50.082;8.988;2023-06-22T14:27:34;8.48;;;2.35;;
73699;SDS011;62005;50.082;8.988;2023-06-22T14:29:59;8.55;;;2.10;;
73699;SDS011;62005;50.082;8.988;2023-06-22T14:32:24;7.13;;;2.30;;
73699;SDS011;62005;50.082;8.988;2023-06-22T14:34:50;6.32;;;1.95;;
73699;SDS011;62005;50.082;8.988;2023-06-22T14:37:15;7.47;;;2.13;;
73699;SDS011;62005;50.082;8.988;2023-06-22T14:39:41;4.82;;;1.85;;
73699;SDS011;62005;50.082;8.988;2023-06-22T14:42:08;7.03;;;2.40;;
73699;SDS011;62005;50.082;8.988;2023-06-22T14:44:33;6.80;;;2.20;;
73699;SDS011;62005;50.082;8.988;2023-06-22T14:47:00;7.40;;;2.35;;
73699;SDS011;62005;50.082;8.988;2023-06-22T14:49:25;11.10;;;2.30;;
73699;SDS011;62005;50.082;8.988;2023-06-22T14:51:51;7.22;;;2.25;;
73699;SDS011;62005;50.082;8.988;2023-06-22T14:54:16;5.67;;;2.20;;
73699;SDS011;62005;50.082;8.988;2023-06-22T14:56:41;7.13;;;2.27;;
73699;SDS011;62005;50.082;8.988;2023-06-22T14:59:08;9.10;;;1.92;;
73699;SDS011;62005;50.082;8.988;2023-06-22T15:01:34;6.65;;;2.50;;
73699;SDS011;62005;50.082;8.988;2023-06-22T15:03:59;4.83;;;1.97;;
73699;SDS011;62005;50.082;8.988;2023-06-22T15:06:25;6.57;;;3.13;;
73699;SDS011;62005;50.082;8.988;2023-06-22T15:08:52;5.70;;;1.88;;
73699;SDS011;62005;50.082;8.988;2023-06-22T15:11:17;9.55;;;2.45;;
73699;SDS011;62005;50.082;8.988;2023-06-22T15:13:42;6.03;;;1.87;;
73699;SDS011;62005;50.082;8.988;2023-06-22T15:16:08;8.17;;;2.13;;
73699;SDS011;62005;50.082;8.988;2023-06-22T15:18:34;7.22;;;2.13;;
73699;SDS011;62005;50.082;8.988;2023-06-22T15:21:00;6.70;;;1.83;;
73699;SDS011;62005;50.082;8.988;2023-06-22T15:23:26;8.90;;;2.10;;
73699;SDS011;62005;50.082;8.988;2023-06-22T15:25:55;7.88;;;2.17;;
73699;SDS011;62005;50.082;8.988;2023-06-22T15:28:21;6.47;;;1.90;;
73699;SDS011;62005;50.082;8.988;2023-06-22T15:30:47;8.75;;;2.17;;
73699;SDS011;62005;50.082;8.988;2023-06-22T15:33:13;8.70;;;2.00;;
73699;SDS011;62005;50.082;8.988;2023-06-22T15:35:38;6.05;;;1.95;;
73699;SDS011;62005;50.082;8.988;2023-06-22T15:38:04;9.53;;;1.70;;
73699;SDS011;62005;50.082;8.988;2023-06-22T15:40:29;6.10;;;1.90;;
73699;SDS011;62005;50.082;8.988;2023-06-22T15:42:55;10.70;;;2.10;;
73699;SDS011;62005;50.082;8.988;2023-06-22T15:45:20;6.95;;;2.60;;
73699;SDS011;62005;50.082;8.988;2023-06-22T15:47:45;8.83;;;1.87;;
73699;SDS011;62005;50.082;8.988;2023-06-22T15:50:11;6.37;;;1.90;;
73699;SDS011;62005;50.082;8.988;2023-06-22T15:52:36;9.30;;;2.10;;
73699;SDS011;62005;50.082;8.988;2023-06-22T15:55:02;7.53;;;2.00;;
73699;SDS011;62005;50.082;8.988;2023-06-22T15:57:27;7.18;;;2.03;;
73699;SDS011;62005;50.082;8.988;2023-06-22T15:59:53;4.95;;;1.63;;
73699;SDS011;62005;50.082;8.988;2023-06-22T16:02:18;6.57;;;1.52;;
73699;SDS011;62005;50.082;8.988;2023-06-22T16:04:52;9.27;;;2.15;;
73699;SDS011;62005;50.082;8.988;2023-06-22T16:07:19;7.45;;;1.77;;
73699;SDS011;62005;50.082;8.988;2023-06-22T16:09:45;6.32;;;1.80;;
73699;SDS011;62005;50.082;8.988;2023-06-22T16:12:10;6.25;;;1.33;;
73699;SDS011;62005;50.082;8.988;2023-06-22T16:14:35;7.93;;;1.58;;
73699;SDS011;62005;50.082;8.988;2023-06-22T16:17:02;10.10;;;1.60;;
73699;SDS011;62005;50.082;8.988;2023-06-22T16:19:28;10.18;;;2.42;;
73699;SDS011;62005;50.082;8.988;2023-06-22T16:21:53;7.80;;;1.50;;
73699;SDS011;62005;50.082;8.988;2023-06-22T16:26:45;8.23;;;1.55;;
73699;SDS011;62005;50.082;8.988;2023-06-22T16:29:12;11.98;;;1.70;;
73699;SDS011;62005;50.082;8.988;2023-06-22T16:31:38;6.70;;;1.60;;